createdAt,value
2018-10-17T00:04:48.621Z,15.10
2018-10-17T00:09:48.793Z,15.20
2018-10-17T00:17:18.008Z,15.10
2018-10-17T00:19:48.001Z,15.10
2018-10-17T00:24:47.383Z,15.00
2018-10-17T00:32:16.254Z,14.90
2018-10-17T00:37:15.755Z,15.00
2018-10-17T00:42:15.067Z,15.00
2018-10-17T00:47:14.537Z,15.00
2018-10-17T00:49:44.449Z,15.10
2018-10-17T00:52:14.483Z,15.00
2018-10-17T00:54:44.457Z,15.00
2018-10-17T01:02:14.561Z,15.00
2018-10-17T01:04:44.624Z,15.00
2018-10-17T01:12:13.421Z,15.00
2018-10-17T01:22:26.795Z,15.00
2018-10-17T01:50:07.068Z,14.70
2018-10-17T02:15:03.820Z,14.70
2018-10-17T02:17:33.834Z,14.70
2018-10-17T02:25:03.876Z,14.60
2018-10-17T02:30:03.487Z,14.60
2018-10-17T02:32:33.449Z,14.60
2018-10-17T02:55:12.496Z,14.20
2018-10-17T03:00:13.148Z,14.10
2018-10-17T03:05:12.816Z,14.20
2018-10-17T03:17:40.442Z,14.50
2018-10-17T03:20:11.061Z,14.00
2018-10-17T03:22:41.069Z,14.00
2018-10-17T03:40:07.866Z,14.10
2018-10-17T03:50:06.934Z,13.80
2018-10-17T03:55:07.974Z,13.70
2018-10-17T04:00:07.712Z,13.60
2018-10-17T04:05:10.397Z,13.60
2018-10-17T04:35:08.171Z,13.60
2018-10-17T04:40:07.668Z,13.60
2018-10-17T04:47:39.594Z,13.60
2018-10-17T05:02:43.047Z,13.60
2018-10-17T05:22:39.636Z,13.30
2018-10-17T05:25:10.046Z,13.30
2018-10-17T05:30:12.248Z,13.40
2018-10-17T05:32:42.260Z,13.50
2018-10-17T05:35:12.343Z,13.60
2018-10-17T05:45:10.601Z,13.50
2018-10-17T05:52:39.641Z,13.50
2018-10-17T06:02:41.292Z,13.50
2018-10-17T06:07:43.972Z,13.60
2018-10-17T06:15:13.164Z,13.60
2018-10-17T06:20:12.842Z,13.60
2018-10-17T06:25:12.609Z,13.70
2018-10-17T06:30:12.125Z,13.70
2018-10-17T06:32:42.227Z,13.70
2018-10-17T06:35:12.744Z,13.80
2018-10-17T06:45:12.261Z,14.10
2018-10-17T06:50:12.590Z,14.30
2018-10-17T06:52:42.634Z,14.30
2018-10-17T06:55:12.771Z,14.30
2018-10-17T07:02:45.742Z,14.50
2018-10-17T07:07:45.854Z,14.70
2018-10-17T07:12:46.216Z,14.80
2018-10-17T07:15:16.362Z,14.90
2018-10-17T07:17:46.535Z,14.90
2018-10-17T07:22:47.579Z,15.00
2018-10-17T07:25:17.781Z,15.00
2018-10-17T07:27:47.972Z,15.10
2018-10-17T07:32:47.625Z,15.20
2018-10-17T07:40:19.104Z,15.40
2018-10-17T07:42:49.086Z,15.40
2018-10-17T07:52:47.789Z,15.60
2018-10-17T07:55:17.802Z,15.60
2018-10-17T07:57:47.780Z,15.70
2018-10-17T08:02:47.239Z,15.80
2018-10-17T08:05:17.295Z,15.80
2018-10-17T08:10:16.751Z,15.90
2018-10-17T08:12:46.795Z,15.90
2018-10-17T08:15:16.783Z,16.00
2018-10-17T08:17:46.769Z,16.00
2018-10-17T08:20:16.776Z,16.00
2018-10-17T08:22:46.784Z,16.10
2018-10-17T08:30:15.698Z,16.20
2018-10-17T08:32:45.656Z,16.30
2018-10-17T08:35:15.671Z,16.30
2018-10-17T08:37:48.543Z,16.30
2018-10-17T08:42:47.602Z,16.60
2018-10-17T08:45:17.743Z,16.60
2018-10-17T08:47:47.702Z,16.70
2018-10-17T08:50:17.793Z,16.90
2018-10-17T08:52:47.649Z,16.90
2018-10-17T09:00:16.539Z,17.10
2018-10-17T09:02:46.505Z,17.00
2018-10-17T09:05:16.511Z,17.20
2018-10-17T09:07:46.539Z,17.20
2018-10-17T09:10:17.830Z,17.40
2018-10-17T09:15:18.995Z,18.00
2018-10-17T09:17:49.001Z,18.20
2018-10-17T09:25:18.757Z,18.50
2018-10-17T09:27:48.643Z,18.60
2018-10-17T09:30:18.788Z,18.70
2018-10-17T09:32:48.728Z,18.80
2018-10-17T09:37:49.166Z,19.20
2018-10-17T09:40:19.440Z,19.20
2018-10-17T09:42:49.521Z,19.20
2018-10-17T09:47:49.372Z,19.10
2018-10-17T09:50:19.413Z,19.20
2018-10-17T09:52:49.480Z,19.10
2018-10-17T09:57:49.079Z,19.20
2018-10-17T10:00:36.058Z,19.30
2018-10-17T10:03:06.299Z,19.40
2018-10-17T10:05:41.373Z,19.50
2018-10-17T10:10:43.036Z,19.90
2018-10-17T10:15:42.940Z,20.00
2018-10-17T10:30:41.814Z,20.10
2018-10-17T10:55:41.737Z,21.60
2018-10-17T11:00:43.081Z,21.70
2018-10-17T11:05:42.775Z,21.80
2018-10-17T11:13:11.690Z,21.80
2018-10-17T11:23:10.923Z,21.90
2018-10-17T11:28:10.410Z,22.50
2018-10-17T11:30:40.426Z,22.60
2018-10-17T11:38:10.250Z,22.70
2018-10-17T11:48:09.096Z,23.00
2018-10-17T11:55:38.175Z,23.20
2018-10-17T11:58:08.705Z,23.20
2018-10-17T12:05:37.988Z,22.80
2018-10-17T12:08:07.892Z,22.80
2018-10-17T12:18:09.239Z,23.10
2018-10-17T12:23:08.730Z,22.80
2018-10-17T12:25:38.808Z,22.60
2018-10-17T12:28:10.708Z,22.40
2018-10-17T12:35:44.406Z,22.50
2018-10-17T12:40:43.922Z,22.60
2018-10-17T12:45:43.286Z,22.90
2018-10-17T12:55:41.709Z,23.10
2018-10-17T12:58:11.683Z,23.50
2018-10-17T13:03:11.225Z,24.50
2018-10-17T13:08:10.742Z,25.20
2018-10-17T13:10:40.742Z,25.50
2018-10-17T13:13:11.139Z,25.20
2018-10-17T13:20:40.469Z,24.90
2018-10-17T13:23:10.560Z,24.80
2018-10-17T13:28:09.918Z,24.90
2018-10-17T13:33:09.320Z,24.30
2018-10-17T13:38:08.764Z,23.50
2018-10-17T13:43:08.295Z,23.10
2018-10-17T13:45:38.187Z,23.00
2018-10-17T13:48:08.203Z,22.90
2018-10-17T13:50:38.849Z,22.70
2018-10-17T13:53:09.282Z,22.30
2018-10-17T13:58:08.783Z,22.90
2018-10-17T14:03:10.805Z,22.30
2018-10-17T14:08:11.649Z,21.90
2018-10-17T14:13:11.348Z,21.80
2018-10-17T14:23:09.690Z,21.40
2018-10-17T14:25:39.704Z,21.30
2018-10-17T14:33:12.950Z,21.30
2018-10-17T14:40:41.924Z,21.20
2018-10-17T14:53:10.211Z,21.00
2018-10-17T14:58:09.832Z,21.00
2018-10-17T15:13:14.794Z,20.70
2018-10-17T15:18:16.327Z,20.80
2018-10-17T15:30:49.249Z,20.80
2018-10-17T15:38:19.006Z,20.40
2018-10-17T15:43:18.625Z,20.40
2018-10-17T15:45:48.629Z,20.50
2018-10-17T15:48:18.672Z,20.50
2018-10-17T15:50:48.808Z,20.30
2018-10-17T15:55:48.975Z,20.30
2018-10-17T16:00:50.071Z,20.30
2018-10-17T16:18:18.944Z,19.80
2018-10-17T16:23:18.588Z,19.70
2018-10-17T16:28:18.074Z,19.50
2018-10-17T16:33:17.692Z,19.40
2018-10-17T16:35:48.259Z,19.40
2018-10-17T16:38:18.385Z,19.30
2018-10-17T16:43:17.887Z,19.20
2018-10-17T16:48:17.358Z,19.10
2018-10-17T16:50:49.848Z,19.00
2018-10-17T16:58:18.754Z,18.80
2018-10-17T17:05:47.642Z,18.60
2018-10-17T17:08:17.624Z,18.70
2018-10-17T17:10:47.672Z,18.60
2018-10-17T17:15:47.186Z,18.40
2018-10-17T17:20:46.731Z,18.20
2018-10-17T17:28:15.650Z,18.00
2018-10-17T17:30:51.108Z,17.90
2018-10-17T17:33:21.101Z,17.70
2018-10-17T17:38:20.762Z,17.60
2018-10-17T17:45:49.668Z,17.40
2018-10-17T17:48:19.645Z,17.40
2018-10-17T17:53:19.135Z,17.30
2018-10-17T17:58:18.682Z,17.10
2018-10-17T18:00:51.029Z,17.30
2018-10-17T18:13:19.088Z,17.10
2018-10-17T18:20:48.238Z,16.90
2018-10-17T18:25:47.688Z,16.90
2018-10-17T18:30:55.648Z,16.80
2018-10-17T18:33:25.782Z,16.70
2018-10-17T18:38:25.378Z,16.70
2018-10-17T18:40:55.369Z,16.70
2018-10-17T18:43:25.627Z,16.70
2018-10-17T18:45:55.765Z,16.70
2018-10-17T18:48:25.939Z,16.70
2018-10-17T18:53:25.406Z,16.60
2018-10-17T18:55:55.511Z,16.50
2018-10-17T18:58:25.602Z,16.60
2018-10-17T19:00:55.639Z,16.50
2018-10-17T19:03:25.715Z,16.40
2018-10-17T19:10:54.790Z,16.40
2018-10-17T19:15:54.436Z,16.20
2018-10-17T19:18:24.404Z,16.20
2018-10-17T19:20:54.449Z,16.20
2018-10-17T19:23:24.445Z,16.10
2018-10-17T19:25:54.539Z,16.00
2018-10-17T19:28:24.494Z,16.00
2018-10-17T19:33:25.512Z,15.90
2018-10-17T19:38:25.037Z,15.80
2018-10-17T19:45:56.894Z,15.60
2018-10-17T19:48:27.021Z,15.60
2018-10-17T19:55:56.119Z,15.40
2018-10-17T19:58:26.100Z,15.40
2018-10-17T20:05:56.266Z,15.30
2018-10-17T20:20:53.919Z,15.20
2018-10-17T20:33:22.424Z,15.00
2018-10-17T20:35:52.508Z,15.00
2018-10-17T20:40:52.523Z,15.00
2018-10-17T21:10:51.919Z,14.90
2018-10-17T21:30:47.965Z,14.70
2018-10-17T21:35:47.419Z,14.50
2018-10-17T21:38:17.530Z,14.50
2018-10-17T21:40:47.519Z,14.40
2018-10-17T21:43:17.529Z,14.40
2018-10-17T21:58:14.841Z,14.30
2018-10-17T22:20:40.536Z,14.10
2018-10-17T22:35:38.561Z,14.10
2018-10-17T22:40:38.004Z,14.00
2018-10-17T22:45:37.554Z,13.90
2018-10-17T22:55:36.064Z,13.90
2018-10-17T23:03:05.583Z,13.70
2018-10-17T23:05:35.616Z,13.80
2018-10-17T23:08:05.683Z,13.80
2018-10-17T23:13:05.563Z,13.80
2018-10-17T23:15:35.660Z,13.70
2018-10-17T23:18:05.697Z,13.70
2018-10-17T23:23:05.169Z,13.60
2018-10-17T23:25:35.774Z,13.70
2018-10-17T23:28:05.864Z,13.70
2018-10-17T23:33:05.320Z,13.60
2018-10-17T23:35:35.338Z,13.70
2018-10-17T23:38:05.423Z,13.70
2018-10-17T23:43:05.657Z,13.70
2018-10-17T23:45:35.607Z,13.60
2018-10-17T23:48:06.785Z,13.60
2018-10-17T23:53:07.191Z,13.70
2018-10-17T23:55:37.215Z,13.60
2018-10-17T23:58:07.211Z,13.50
